CCGS Amundsen — CGDT — position and weather

sailwx.info

Track history (hours):
 
Tides and Currents Weather Stations Pressure Air Temp Water Temp Dewpoint Dewpoint Depression Visibility Wind Speed Wind Dir Waves Ship Positions

Oceanographic research ship CCGS Amundsen (Canada)

Detailed information on ship capabilities available from ARCUS's ALIAS (Arctic Logistics Information and Support) project.

Last reported at 2019-Apr-19 10:00 UTC. Time now 2019-Apr-19 11:08 UTC.
Position N 46°48' W 071°12'.

Length 98.3 m; beam 19.5 m; draft 7.3 m.

Type: SAR. MMSI: 316050000.

Wind from 210 at 7 knots

Barometer 1001.9 mb
Air temperature 3.8 ° C
Dewpoint 3.7 ° C

Date/timePositionNaut miles runAvg speedWind from/ knotsBaromVisibWave heightAir tempDewpointWater temp
2019-Apr-19 10:00N 46°48' W 071°12'0 0.0 210 / 71001.9 3.8 3.7
2019-Apr-19 09:00N 46°48' W 071°12'0 0.0 210 / 11001.5 3.5 3.4
2019-Apr-19 08:00N 46°48' W 071°12'0 0.0 010 / 61001.4 3.9 3.8
2019-Apr-19 07:00N 46°48' W 071°12'0 0.0 360 / 51002.3 3.5 3.4
2019-Apr-19 06:00N 46°48' W 071°12'0 0.0 360 / 61003.3 3.6 3.5
2019-Apr-19 05:00N 46°48' W 071°12'0 0.0 040 / 81004.0 3.2 3.1
2019-Apr-19 04:00N 46°48' W 071°12'0 0.0 010 / 61005.3 3.3 3.1
2019-Apr-19 03:00N 46°48' W 071°12'0 0.0 020 / 101006.6 3.2 2.9
2019-Apr-19 02:00N 46°48' W 071°12'0 0.0 030 / 81007.6 3.7 2.8
2019-Apr-19 01:00N 46°48' W 071°12'0 0.0 360 / 61008.6 3.8 2.7
2019-Apr-19 00:00N 46°48' W 071°12'0 0.0 350 / 71008.6 4.1 2.4
2019-Apr-18 23:00N 46°48' W 071°12'0 0.0 020 / 81009.6 4.6 2.3
2019-Apr-18 22:00N 46°48' W 071°12'0 0.0 020 / 71009.4 5.9 1.1
2019-Apr-18 21:00N 46°48' W 071°12'0 0.0 040 / 81010.8 6.2 1.3
2019-Apr-18 20:00N 46°48' W 071°12'0 0.0 050 / 51012.8 5.8 1.7
2019-Apr-18 19:00N 46°48' W 071°12'0 0.0 010 / 71014.4 4.7 1.8
2019-Apr-18 18:00N 46°48' W 071°12'0 0.0 360 / 51015.4 5.5 0.3
2019-Apr-18 17:00N 46°48' W 071°12'0 0.0 050 / 21016.4 6.2-2.1
2019-Apr-18 16:00N 46°48' W 071°12'0 0.0 010 / 51017.6 5.9-2.5
2019-Apr-18 15:00N 46°48' W 071°12'0 0.0 040 / 81018.7 4.9-2.1
2019-Apr-18 14:00N 46°48' W 071°12'0 0.0 010 / 71019.4 3.8-0.9
2019-Apr-18 13:00N 46°48' W 071°12'0 0.0 030 / 71020.7 3.2-1.4
2019-Apr-18 12:00N 46°48' W 071°12'0 0.0 360 / 71021.2 2.5-2.2
2019-Apr-18 11:00N 46°48' W 071°12'0 0.0 350 / 81021.8 1.5-2.4
2019-Apr-18 10:00N 46°48' W 071°12'0 0.0 010 / 71022.0 0.9-1.8
2019-Apr-18 09:00N 46°48' W 071°12'0 0.0 360 / 61022.3 1.2-2.0
2019-Apr-18 08:00N 46°48' W 071°12'0 0.0 020 / 71022.6 1.5-1.9
2019-Apr-18 06:00N 46°48' W 071°12'0 0.0 350 / 31023.2 2.5-2.8
2019-Apr-18 05:00N 46°48' W 071°12'0 0.0 010 / 51023.4 3.2-2.4
2019-Apr-18 04:00N 46°48' W 071°12'0 0.0 020 / 11023.5 4.2-2.7
2019-Apr-18 03:00N 46°48' W 071°12'0 0.0 360 / 41023.2 5.9-3.6
2019-Apr-18 02:00N 46°48' W 071°12'0 0.0 020 / 11022.4 7.1-4.5
2019-Apr-18 01:00N 46°48' W 071°12'0 0.0 210 / 51022.1 7.4-4.3
2019-Apr-18 00:00N 46°48' W 071°12'0 0.0 220 / 21021.3 9.4-3.6
2019-Apr-17 23:00N 46°48' W 071°12'0 0.0 220 / 71020.7 10.7-7.6
2019-Apr-17 22:00N 46°48' W 071°12'0 0.0 210 / 91020.5 10.1-5.7
2019-Apr-17 21:00N 46°48' W 071°12'0 0.0 210 / 121020.3 11.2-6.4
2019-Apr-17 20:00N 46°48' W 071°12'0 0.0 200 / 141020.4 10.6-5.8
2019-Apr-17 19:00N 46°48' W 071°12'0 0.0 200 / 161020.5 9.0-4.0
2019-Apr-17 18:00N 46°48' W 071°12'0 0.0 210 / 151020.7 9.3-4.8
2019-Apr-17 17:00N 46°48' W 071°12'0 0.0 200 / 151020.5 8.3-4.9
2019-Apr-17 16:00N 46°48' W 071°12'0 0.0 200 / 171020.6 6.0-3.5
2019-Apr-17 15:00N 46°48' W 071°12'0 0.0 210 / 111020.7 5.5-5.5
2019-Apr-17 14:00N 46°48' W 071°12'0 0.0 210 / 81020.8 4.5-3.7
2019-Apr-17 13:00N 46°48' W 071°12'0 0.0 200 / 41020.6 4.5-2.2
2019-Apr-17 12:00N 46°48' W 071°12'0 0.0 180 / 11020.0 5.1-3.1
2019-Apr-17 11:00N 46°48' W 071°12'0 0.0 1019.3 4.3-2.7
2019-Apr-17 10:00N 46°48' W 071°12'0 0.0 280 / 11018.1 2.1-3.5
2019-Apr-17 09:00N 46°48' W 071°12'0 0.0 270 / 11017.3 2.2-2.4
2019-Apr-17 08:00N 46°48' W 071°12'0 0.0 1016.8 1.7-2.3
2019-Apr-17 07:00N 46°48' W 071°12'0 0.0 040 / 11016.3 2.5-1.8
2019-Apr-17 06:00N 46°48' W 071°12'0 0.0 240 / 11016.1 2.4-1.5
2019-Apr-17 05:00N 46°48' W 071°12'0 0.0 040 / 21015.7 2.8-1.4
2019-Apr-17 04:00N 46°48' W 071°12'0 0.0 230 / 21015.0 3.9-1.3
2019-Apr-17 03:00N 46°48' W 071°12'0 0.0 210 / 21014.7 4.8-1.5
2019-Apr-17 02:00N 46°48' W 071°12'0 0.0 310 / 11014.2 4.6-1.6
2019-Apr-17 01:00N 46°48' W 071°12'0 0.0 210 / 41013.2 5.3-1.9
2019-Apr-17 00:00N 46°48' W 071°12'0 0.0 030 / 51011.9 6.2-2.6
2019-Apr-16 23:00N 46°48' W 071°12'0 0.0 030 / 81010.6 6.4-3.0
2019-Apr-16 22:00N 46°48' W 071°12'0 0.0 030 / 61009.9 6.6-3.5
2019-Apr-16 21:00N 46°48' W 071°12'0 0.0 020 / 41009.2 5.8-3.4
2019-Apr-16 20:00N 46°48' W 071°12'0 0.0 020 / 61008.7 5.2-3.6
2019-Apr-16 19:00N 46°48' W 071°12'0 0.0 030 / 91008.0 5.0-3.7
2019-Apr-16 18:00N 46°48' W 071°12'0 0.0 030 / 71007.2 5.4-3.3
2019-Apr-16 17:00N 46°48' W 071°12'0 0.0 040 / 91006.4 5.6-3.5
2019-Apr-16 16:00N 46°48' W 071°12'0 0.0 040 / 51005.8 6.3-2.4
2019-Apr-16 15:00N 46°48' W 071°12'4 4.1 030 / 81005.3 5.5-2.5
2019-Apr-16 14:00N 46°48' W 071°06'0 0.0 290 / 211003.8 4.8-2.4 3.7
2019-Apr-16 13:00N 46°48' W 071°06'4 4.1 280 / 181003.4 4.3-1.9 3.8
2019-Apr-16 12:00N 46°48' W 071°12'0 0.0 190 / 71003.0 3.6-0.7
2019-Apr-16 11:00N 46°48' W 071°12'0 0.0 200 / 81001.6 3.3-0.4
2019-Apr-16 10:00N 46°48' W 071°12'0 0.0 200 / 91000.4 3.1-0.0
2019-Apr-16 09:00N 46°48' W 071°12'0 0.0 200 / 8998.9 3.3-0.0
2019-Apr-16 08:00N 46°48' W 071°12'0 0.0 200 / 8998.1 2.8 0.2
2019-Apr-16 07:00N 46°48' W 071°12'0 0.0 200 / 6997.5 2.7 0.4
2019-Apr-16 06:00N 46°48' W 071°12'0 0.0 210 / 5997.5 2.7 0.6
2019-Apr-16 05:00N 46°48' W 071°12'0 0.0 210 / 4996.8 2.2 1.0
2019-Apr-16 04:00N 46°48' W 071°12'0 0.0 200 / 6996.3 1.4 1.1
2019-Apr-16 03:00N 46°48' W 071°12'0 0.0 200 / 3995.8 1.3 1.1
2019-Apr-16 02:00N 46°48' W 071°12'0 0.0 200 / 4994.9 1.4 1.1
2019-Apr-16 01:00N 46°48' W 071°12'0 0.0 220 / 3993.4 0.7 0.6
2019-Apr-16 00:00N 46°48' W 071°12'0 0.0 220 / 2992.7 0.8 0.7
2019-Apr-15 23:00N 46°48' W 071°12'0 0.0 040 / 2992.3 0.9 0.8
2019-Apr-15 22:00N 46°48' W 071°12'0 0.0 040 / 10991.6 0.8 0.6
2019-Apr-15 21:00N 46°48' W 071°12'0 0.0 030 / 10991.3 1.2 0.8
2019-Apr-15 20:00N 46°48' W 071°12'0 0.0 030 / 14990.0 1.6 1.1
2019-Apr-15 19:00N 46°48' W 071°12'0 0.0 050 / 19990.4 1.7 1.0
2019-Apr-15 18:00N 46°48' W 071°12'0 0.0 050 / 21991.1 1.9 1.2
2019-Apr-15 17:00N 46°48' W 071°12'0 0.0 050 / 20991.2 2.3 1.5
2019-Apr-15 16:00N 46°48' W 071°12'0 0.0 050 / 20990.8 2.6 1.7
2019-Apr-15 15:00N 46°48' W 071°12'0 0.0 040 / 19991.9 2.7 1.9
2019-Apr-15 14:00N 46°48' W 071°12'0 0.0 040 / 18993.2 2.9 2.0
2019-Apr-15 13:00N 46°48' W 071°12'0 0.0 040 / 21994.3 2.8 1.9
2019-Apr-15 12:00N 46°48' W 071°12'0 0.0 040 / 23995.4 3.1 1.6
2019-Apr-15 11:00N 46°48' W 071°12'0 0.0 040 / 22995.6 3.1 1.5
2019-Apr-15 10:00N 46°48' W 071°12'0 0.0 040 / 21995.7 3.2 1.2
2019-Apr-15 09:00N 46°48' W 071°12'0 0.0 040 / 22999.3 2.3 0.7
2019-Apr-15 08:00N 46°48' W 071°12'0 0.0 040 / 271000.5 2.0 0.4
2019-Apr-15 07:00N 46°48' W 071°12'0 0.0 040 / 221002.0 2.5 1.0
2019-Apr-15 05:00N 46°48' W 071°12'0 0.0 050 / 121005.8 3.1 1.0
2019-Apr-15 04:00N 46°48' W 071°12'0 0.0 030 / 141007.7 3.1 1.0
2019-Apr-15 03:00N 46°48' W 071°12'0 0.0 020 / 51009.7 3.6 1.3 3.5
2019-Apr-15 02:00N 46°48' W 071°12'0 0.0 160 / 41010.8 3.6 0.9
2019-Apr-15 01:00N 46°48' W 071°12'1413.7 180 / 91012.0 4.3 0.7
2019-Apr-15 00:00N 46°42' W 071°30'1616.5 170 / 131011.5 4.2 0.5 3.8
2019-Apr-14 23:00N 46°42' W 071°54'1717.2 110 / 21011.2 6.1-3.7 4.0
2019-Apr-14 22:00N 46°30' W 072°12'1413.8 210 / 31011.7 6.4-4.8 3.9
2019-Apr-14 21:00N 46°24' W 072°30'1717.3 180 / 31012.4 6.6-5.2 4.0
2019-Apr-14 20:00N 46°12' W 072°48'812.5 140 / 41012.2 6.1-6.0 4.1
2019-Apr-14 19:22N 46°08' W 072°57'2 6.3
2019-Apr-14 19:00N 46°06' W 073°00'348.9 110 / 61013.0 7.1-4.6 4.2
2019-Apr-14 18:55N 46°04' W 073°04'512.3
2019-Apr-14 18:30N 46°01' W 073°10'612.4
2019-Apr-14 18:00N 45°55' W 073°13'2120.5
2019-Apr-14 18:00N 45°54' W 073°12'611.5 200 / 51014.1 6.8-5.2 4.0
2019-Apr-14 17:30N 45°50' W 073°17'612.8
2019-Apr-14 17:01N 45°45' W 073°24'3165.2
2019-Apr-14 17:00N 45°48' W 073°24'918.9 180 / 41014.5 6.8-5.3 4.0
2019-Apr-14 16:30N 45°39' W 073°28'5 9.5
2019-Apr-14 16:00N 45°35' W 073°30'1100.3
2019-Apr-14 16:00N 45°36' W 073°30'610.6 270 / 4 7.1-5.1 4.5
2019-Apr-14 15:27N 45°30' W 073°31'1 1.6
2019-Apr-14 15:01N 45°30' W 073°31'147.8
2019-Apr-14 15:00N 45°30' W 073°30'2 4.7 300 / 3 7.0-4.6 5.2
2019-Apr-14 14:31N 45°28' W 073°30'3 5.7
2019-Apr-14 14:00N 45°25' W 073°31'166.5
2019-Apr-14 14:00N 45°24' W 073°30'3 5.7 270 / 8 6.1-3.5 4.6
2019-Apr-14 13:30N 45°24' W 073°34'1 2.6
2019-Apr-14 13:00N 45°24' W 073°36'030.2
2019-Apr-14 13:00N 45°24' W 073°36'2 4.3 260 / 9 6.1-4.1
2019-Apr-14 12:30N 45°24' W 073°39'3 5.5
2019-Apr-14 12:01N 45°25' W 073°43'148.7
2019-Apr-14 12:00N 45°24' W 073°42'510.5 230 / 8 4.3-2.5 3.8
2019-Apr-14 11:30N 45°23' W 073°49'611.3
2019-Apr-14 11:00N 45°18' W 073°54'21830.4 240 / 8 3.0-3.6 4.2
2019-Apr-14 10:59N 45°20' W 073°53'0 0.0
2019-Apr-14 10:29N 45°20' W 073°53'2 4.1
2019-Apr-14 10:00N 45°18' W 073°54'239.9 240 / 8 2.9-3.8
2019-Apr-14 09:56N 45°20' W 073°53'0 0.0
2019-Apr-14 09:29N 45°20' W 073°53'2 4.1
2019-Apr-14 09:00N 45°18' W 073°54'21475.1 240 / 9 3.6-3.9
2019-Apr-14 08:59N 45°20' W 073°53'0 0.0
2019-Apr-14 08:29N 45°20' W 073°53'2 4.1
2019-Apr-14 08:00N 45°18' W 073°54'2565.9 220 / 12 4.4-4.2
2019-Apr-14 07:59N 45°20' W 073°53'0 0.0
2019-Apr-14 07:29N 45°20' W 073°53'2 4.1
2019-Apr-14 07:00N 45°18' W 073°54'2204.4 220 / 9 4.6-3.5
2019-Apr-14 06:59N 45°20' W 073°53'0 0.0
2019-Apr-14 06:29N 45°20' W 073°53'2 4.2
2019-Apr-14 06:00N 45°18' W 073°54'2159.9 230 / 9 5.0-4.0
2019-Apr-14 05:59N 45°20' W 073°53'0 0.0
2019-Apr-14 05:26N 45°20' W 073°53'2 4.7
2019-Apr-14 05:00N 45°18' W 073°54'2122.9 230 / 10 5.3-3.3
2019-Apr-14 04:59N 45°20' W 073°53'0 0.0
2019-Apr-14 04:28N 45°20' W 073°53'2 4.3
2019-Apr-14 04:00N 45°18' W 073°54'296.3 250 / 9 6.4-2.7
2019-Apr-14 03:58N 45°20' W 073°53'0 0.0
2019-Apr-14 03:25N 45°20' W 073°53'2 4.8
2019-Apr-14 03:00N 45°18' W 073°54'228.3 280 / 9 7.3-3.3 4.0
2019-Apr-14 02:55N 45°20' W 073°53'1 1.2
2019-Apr-14 02:31N 45°20' W 073°54'1 2.5
2019-Apr-14 02:00N 45°19' W 073°55'192.7
2019-Apr-14 02:00N 45°18' W 073°54'1 2.4 270 / 10 8.6-3.1 3.7
2019-Apr-14 01:30N 45°18' W 073°56'0 0.0
2019-Apr-14 01:00N 45°18' W 073°56'173.7
2019-Apr-14 01:00N 45°18' W 073°54'1 2.4 250 / 8 11.0-0.9 3.8
2019-Apr-14 00:30N 45°18' W 073°56'3 5.1
2019-Apr-14 00:00N 45°16' W 073°57'3196.7
2019-Apr-14 00:00N 45°18' W 073°54'1414.0 240 / 19 12.8-2.6 3.7
2019-Apr-13 23:00N 45°12' W 074°12'1010.4 240 / 20 11.4-0.9 3.5
2019-Apr-13 22:00N 45°06' W 074°24'1010.4 230 / 24 14.1-1.5 3.4
2019-Apr-13 21:00N 45°00' W 074°36'1010.4 230 / 30 16.2-2.9 3.2
2019-Apr-13 20:00N 44°54' W 074°48'4 4.3 230 / 21 16.8-3.1 3.4
2019-Apr-13 19:00N 44°54' W 074°54'0 0.0 230 / 19 16.7-3.3 3.4
2019-Apr-13 18:00N 44°54' W 074°54'1312.8 230 / 27 14.5-3.3 3.0
2019-Apr-13 17:00N 44°54' W 075°12'7 7.4 230 / 25 13.9 0.3 2.9
2019-Apr-13 16:00N 44°48' W 075°18'1414.1 220 / 25 13.4 1.9 2.6
2019-Apr-13 15:00N 44°42' W 075°36'813.0 220 / 20 10.7 2.1 2.6
2019-Apr-13 14:24N 44°35' W 075°41'4 9.1
2019-Apr-13 14:00N 44°33' W 075°44'3211.0
2019-Apr-13 14:00N 44°30' W 075°42'4 9.1 210 / 12 9.6 3.4 2.3
2019-Apr-13 13:30N 44°28' W 075°48'5 9.5
2019-Apr-13 13:01N 44°24' W 075°51'2122.7
2019-Apr-13 13:00N 44°24' W 075°54'7 7.4 190 / 7 9.1 4.3 2.1
2019-Apr-13 12:00N 44°18' W 076°00'6 8.8 190 / 51016.9 7.3 4.1 2.0
2019-Apr-13 11:19N 44°14' W 076°07'514.2
2019-Apr-13 11:00N 44°12' W 076°12'111.4 230 / 71016.4 5.2 3.2 2.1
2019-Apr-13 10:56N 44°12' W 076°13'1011.1
2019-Apr-13 10:00N 44°06' W 076°24'1514.8 250 / 171015.3 7.1 3.4 2.2
2019-Apr-13 09:00N 43°54' W 076°36'1414.3 250 / 171014.5 6.0 2.4 2.6
2019-Apr-13 08:00N 43°48' W 076°54'1414.3 250 / 211013.6 9.7 4.0 2.4
2019-Apr-13 07:00N 43°42' W 077°12'1717.4 240 / 151013.1 8.0 4.7 2.5
2019-Apr-13 06:00N 43°42' W 077°36'1414.3 220 / 141012.9 7.8 5.2 2.5
2019-Apr-13 05:00N 43°36' W 077°54'1414.4 230 / 121012.6 9.1 5.5 2.7
2019-Apr-13 04:00N 43°30' W 078°12'1818.4 210 / 131011.9 10.7 6.1 3.2
2019-Apr-13 03:00N 43°24' W 078°36'1313.1 230 / 101011.6 9.8 6.0 3.5
2019-Apr-13 02:00N 43°24' W 078°54'1414.4 230 / 111011.3 10.2 7.2 3.2
2019-Apr-13 01:00N 43°18' W 079°12'6 6.0 220 / 161010.7 14.010.0 4.2
2019-Apr-13 00:00N 43°12' W 079°12'0 0.0 210 / 91008.6 16.912.7 5.1
2019-Apr-12 23:00N 43°12' W 079°12'6 6.0 190 / 61006.4 15.913.8 4.2
2019-Apr-12 22:00N 43°06' W 079°12'0 0.0 170 / 5 14.613.2 4.1
2019-Apr-12 21:00N 43°06' W 079°12'0 0.0 180 / 6 13.311.7
2019-Apr-12 20:00N 43°06' W 079°12'0 0.0 180 / 12 14.412.0
2019-Apr-12 19:00N 43°06' W 079°12'6 6.0 170 / 6 14.212.6 1.6
2019-Apr-12 18:00N 43°00' W 079°12'6 6.0 220 / 11 14.011.0 1.5
2019-Apr-12 17:00N 42°54' W 079°12'7 7.4 190 / 141009.9 15.2 7.2 0.9
2019-Apr-12 16:00N 42°48' W 079°18'0 0.0 170 / 141009.3 8.1 4.2 0.6
2019-Apr-12 15:00N 42°48' W 079°18'0 0.0 180 / 221009.8 8.8 4.6 0.6
2019-Apr-12 14:00N 42°48' W 079°18'0 0.0 180 / 171010.3 8.7 4.4 0.7
2019-Apr-12 13:00N 42°48' W 079°18'0 0.0 170 / 131011.1 8.7 4.4 0.7
2019-Apr-12 11:00N 42°48' W 079°18'0 0.0 130 / 61011.5 6.7 3.4 0.8
2019-Apr-12 10:00N 42°48' W 079°18'0 0.0 110 / 51011.7 6.6 3.0
2019-Apr-12 09:00N 42°48' W 079°18'0 0.0 070 / 71012.1 5.7 1.8
2019-Apr-12 08:00N 42°48' W 079°18'0 0.0 070 / 91012.4 4.5 0.7
2019-Apr-12 07:00N 42°48' W 079°18'0 0.0 060 / 91013.3 3.5-0.2
2019-Apr-12 06:00N 42°48' W 079°18'0 0.0 050 / 121013.8 3.3-0.5
2019-Apr-12 05:00N 42°48' W 079°18'0 0.0 040 / 141014.4 2.9-0.8
2019-Apr-12 04:00N 42°48' W 079°18'0 0.0 040 / 141015.4 3.3-0.9
2019-Apr-12 03:00N 42°48' W 079°18'0 0.0 050 / 141016.5 3.2-0.9 0.7
2019-Apr-12 02:00N 42°48' W 079°18'0 0.0 050 / 151017.4 3.1-0.9 0.8
2019-Apr-12 01:00N 42°48' W 079°18'0 0.0 050 / 161017.7 3.2-0.9
2019-Apr-12 00:00N 42°48' W 079°18'0 0.0 060 / 201017.4 3.4-0.6 0.7
2019-Apr-11 23:00N 42°48' W 079°18'0 0.0 050 / 201017.9 3.2-0.5 0.7
2019-Apr-11 22:00N 42°48' W 079°18'7 7.4 060 / 201018.8 4.0-0.6 0.8
2019-Apr-11 21:00N 42°54' W 079°12'7 7.4 070 / 161019.6 5.2-0.5 0.9
2019-Apr-11 20:00N 42°48' W 079°18'0 0.0 050 / 181019.5 2.4-1.2 0.8
2019-Apr-11 19:00N 42°48' W 079°18'4 4.4 050 / 181019.9 1.6-1.5 0.8
2019-Apr-11 18:00N 42°48' W 079°12'4 4.4 050 / 161021.6 1.5-1.7
2019-Apr-11 17:00N 42°48' W 079°18'0 0.0 060 / 161022.2 1.0-1.9 0.7
2019-Apr-11 16:00N 42°48' W 079°18'4 4.4 060 / 161022.5 0.5-2.0 0.7
2019-Apr-11 15:00N 42°48' W 079°24'4 4.4 060 / 111023.7 0.4-2.2 0.7
2019-Apr-11 14:00N 42°48' W 079°18'0 0.0 060 / 141023.7 0.3-2.6 0.7
2019-Apr-11 13:00N 42°48' W 079°18'0 0.0 060 / 131024.4 0.4-3.1 0.8
2019-Apr-11 12:00N 42°48' W 079°18'0 0.0 050 / 131023.2 0.2-3.6
2019-Apr-11 11:00N 42°48' W 079°18'0 0.0 050 / 131022.3 0.2-3.2 0.8
2019-Apr-11 10:00N 42°48' W 079°18'4 4.4 040 / 91022.5 0.1-2.3
2019-Apr-11 09:00N 42°48' W 079°12'0 0.0 040 / 81022.7 0.3-2.5
2019-Apr-11 08:00N 42°48' W 079°12'0 0.0 030 / 81022.6 0.6-2.8
2019-Apr-11 07:00N 42°48' W 079°12'0 0.0 020 / 91021.8 0.9-2.9
2019-Apr-11 06:00N 42°48' W 079°12'0 0.0 010 / 81021.0 0.8-2.8
2019-Apr-11 05:00N 42°48' W 079°12'0 0.0 010 / 81020.9 1.3-2.6
2019-Apr-11 04:00N 42°48' W 079°12'0 0.0 350 / 51021.1 2.1-0.8
2019-Apr-11 03:00N 42°48' W 079°12'0 0.0 330 / 51021.1 1.0-0.7
2019-Apr-11 02:00N 42°48' W 079°12'0 0.0 280 / 41021.0 -0.0-0.7
2019-Apr-11 01:00N 42°48' W 079°12'0 0.0 270 / 51019.6 -0.1-1.1
2019-Apr-11 00:00N 42°48' W 079°12'0 0.0 180 / 51018.8 1.8-2.4
2019-Apr-10 23:00N 42°48' W 079°12'0 0.0 200 / 71018.7 2.1-2.2
2019-Apr-10 22:00N 42°48' W 079°12'0 0.0 220 / 71018.8 1.4-1.0
2019-Apr-10 21:00N 42°48' W 079°12'0 0.0 260 / 41018.6 1.7-1.5
2019-Apr-10 20:00N 42°48' W 079°12'0 0.0 340 / 41018.2 2.3-1.8
2019-Apr-10 19:00N 42°48' W 079°12'9 8.8 030 / 101018.1 1.0-0.6 0.7
2019-Apr-10 18:00N 42°48' W 079°00'7 7.4 290 / 111017.5 1.5-1.2 0.7
2019-Apr-10 17:00N 42°54' W 078°54'7 7.4 270 / 51017.4 1.5-1.3 0.7
2019-Apr-10 16:00N 42°48' W 079°00'1414.5 290 / 51017.5 1.2-1.5 0.7
2019-Apr-10 15:00N 42°54' W 079°18'1514.9 340 / 81016.6 1.0-2.3 0.7
2019-Apr-10 14:00N 42°42' W 079°30'1110.7 020 / 91016.1 1.0-1.2 0.7
2019-Apr-10 13:00N 42°48' W 079°18'0 0.0 020 / 61015.2 1.4-1.0 0.7
2019-Apr-10 12:00N 42°48' W 079°18'0 0.0 350 / 91014.3 1.5-0.6 0.7
2019-Apr-10 11:00N 42°48' W 079°18'4 4.4 360 / 71013.3 1.8 0.1 0.7
2019-Apr-10 10:00N 42°48' W 079°12'0 0.0 360 / 71012.6 2.1 0.9
2019-Apr-10 09:00N 42°48' W 079°12'0 0.0 330 / 61011.9 3.3 0.7
2019-Apr-10 08:00N 42°48' W 079°12'0 0.0 330 / 81011.1 3.4 0.8
2019-Apr-10 07:00N 42°48' W 079°12'0 0.0 340 / 131010.4 3.8 1.0
2019-Apr-10 06:00N 42°48' W 079°12'0 0.0 330 / 111010.1 3.7 1.5
2019-Apr-10 05:00N 42°48' W 079°12'0 0.0 250 / 61010.0 1.7 1.3
2019-Apr-10 04:00N 42°48' W 079°12'0 0.0 250 / 81010.0 1.8 1.3
2019-Apr-10 03:00N 42°48' W 079°12'0 0.0 230 / 61009.8 1.1 1.0 0.9
2019-Apr-10 02:00N 42°48' W 079°12'0 0.0 240 / 71009.9 1.3 1.1
2019-Apr-10 01:00N 42°48' W 079°12'4 4.4 220 / 71009.1 1.5 1.1
2019-Apr-10 00:00N 42°48' W 079°18'0 0.0 250 / 101008.9 1.8 1.3 1.0
2019-Apr-09 23:00N 42°48' W 079°18'0 0.0 240 / 131008.3 1.8 1.1 0.8
2019-Apr-09 22:00N 42°48' W 079°18'0 0.0 250 / 111007.7 3.9 1.1 0.8
2019-Apr-09 21:00N 42°48' W 079°18'4 4.4 230 / 151007.6 2.7 1.3 0.7
2019-Apr-09 20:00N 42°48' W 079°24'0 0.0 230 / 181007.4 3.8 2.4 0.9
2019-Apr-09 19:00N 42°48' W 079°24'4 4.4 250 / 181006.4 3.3 1.8 0.7
2019-Apr-09 18:00N 42°48' W 079°18'0 0.0 240 / 211005.4 2.6 1.7 0.7
2019-Apr-09 17:00N 42°48' W 079°18'0 0.0 240 / 181004.6 3.1 1.8 0.7
2019-Apr-09 16:00N 42°48' W 079°18'6 6.0 240 / 191003.9 3.7 2.3 0.8
2019-Apr-09 15:00N 42°54' W 079°18'6 6.0 250 / 201002.3 6.0 4.1 0.8
2019-Apr-09 14:00N 42°48' W 079°18'4 4.4 250 / 181003.3 4.3 4.4 0.9
2019-Apr-09 13:00N 42°48' W 079°12'0 0.0 250 / 161002.8 3.3 3.5
2019-Apr-09 12:00N 42°48' W 079°12'0 0.0 220 / 151002.2 4.2 4.4
2019-Apr-09 11:00N 42°48' W 079°12'0 0.0 230 / 91002.4 6.1 6.4
2019-Apr-09 10:00N 42°48' W 079°12'   120 / 81004.4 5.4 5.6
Track history (hours):
 
Tides and Currents Weather Stations Pressure Air Temp Water Temp Dewpoint Dewpoint Depression Visibility Wind Speed Wind Dir Waves Ship Positions

Oceanographic research ship CCGS Amundsen (Canada)

Detailed information on ship capabilities available from ARCUS's ALIAS (Arctic Logistics Information and Support) project.

Last reported at 2019-Apr-19 10:00 UTC. Time now 2019-Apr-19 11:08 UTC.
Position N 46°48' W 071°12'.

Length 98.3 m; beam 19.5 m; draft 7.3 m.

Type: SAR. MMSI: 316050000.

Wind from 210 at 7 knots

Barometer 1001.9 mb
Air temperature 3.8 ° C
Dewpoint 3.7 ° C

Date/timePositionNaut miles runAvg speedWind from/ knotsBaromVisibWave heightAir tempDewpointWater temp
2019-Apr-19 10:00N 46°48' W 071°12'0 0.0 210 / 71001.9 3.8 3.7
2019-Apr-19 09:00N 46°48' W 071°12'0 0.0 210 / 11001.5 3.5 3.4
2019-Apr-19 08:00N 46°48' W 071°12'0 0.0 010 / 61001.4 3.9 3.8
2019-Apr-19 07:00N 46°48' W 071°12'0 0.0 360 / 51002.3 3.5 3.4
2019-Apr-19 06:00N 46°48' W 071°12'0 0.0 360 / 61003.3 3.6 3.5
2019-Apr-19 05:00N 46°48' W 071°12'0 0.0 040 / 81004.0 3.2 3.1
2019-Apr-19 04:00N 46°48' W 071°12'0 0.0 010 / 61005.3 3.3 3.1
2019-Apr-19 03:00N 46°48' W 071°12'0 0.0 020 / 101006.6 3.2 2.9
2019-Apr-19 02:00N 46°48' W 071°12'0 0.0 030 / 81007.6 3.7 2.8
2019-Apr-19 01:00N 46°48' W 071°12'0 0.0 360 / 61008.6 3.8 2.7
2019-Apr-19 00:00N 46°48' W 071°12'0 0.0 350 / 71008.6 4.1 2.4
2019-Apr-18 23:00N 46°48' W 071°12'0 0.0 020 / 81009.6 4.6 2.3
2019-Apr-18 22:00N 46°48' W 071°12'0 0.0 020 / 71009.4 5.9 1.1
2019-Apr-18 21:00N 46°48' W 071°12'0 0.0 040 / 81010.8 6.2 1.3
2019-Apr-18 20:00N 46°48' W 071°12'0 0.0 050 / 51012.8 5.8 1.7
2019-Apr-18 19:00N 46°48' W 071°12'0 0.0 010 / 71014.4 4.7 1.8
2019-Apr-18 18:00N 46°48' W 071°12'0 0.0 360 / 51015.4 5.5 0.3
2019-Apr-18 17:00N 46°48' W 071°12'0 0.0 050 / 21016.4 6.2-2.1
2019-Apr-18 16:00N 46°48' W 071°12'0 0.0 010 / 51017.6 5.9-2.5
2019-Apr-18 15:00N 46°48' W 071°12'0 0.0 040 / 81018.7 4.9-2.1
2019-Apr-18 14:00N 46°48' W 071°12'0 0.0 010 / 71019.4 3.8-0.9
2019-Apr-18 13:00N 46°48' W 071°12'0 0.0 030 / 71020.7 3.2-1.4
2019-Apr-18 12:00N 46°48' W 071°12'0 0.0 360 / 71021.2 2.5-2.2
2019-Apr-18 11:00N 46°48' W 071°12'0 0.0 350 / 81021.8 1.5-2.4
2019-Apr-18 10:00N 46°48' W 071°12'0 0.0 010 / 71022.0 0.9-1.8
2019-Apr-18 09:00N 46°48' W 071°12'0 0.0 360 / 61022.3 1.2-2.0
2019-Apr-18 08:00N 46°48' W 071°12'0 0.0 020 / 71022.6 1.5-1.9
2019-Apr-18 06:00N 46°48' W 071°12'0 0.0 350 / 31023.2 2.5-2.8
2019-Apr-18 05:00N 46°48' W 071°12'0 0.0 010 / 51023.4 3.2-2.4
2019-Apr-18 04:00N 46°48' W 071°12'0 0.0 020 / 11023.5 4.2-2.7
2019-Apr-18 03:00N 46°48' W 071°12'0 0.0 360 / 41023.2 5.9-3.6
2019-Apr-18 02:00N 46°48' W 071°12'0 0.0 020 / 11022.4 7.1-4.5
2019-Apr-18 01:00N 46°48' W 071°12'0 0.0 210 / 51022.1 7.4-4.3
2019-Apr-18 00:00N 46°48' W 071°12'0 0.0 220 / 21021.3 9.4-3.6
2019-Apr-17 23:00N 46°48' W 071°12'0 0.0 220 / 71020.7 10.7-7.6
2019-Apr-17 22:00N 46°48' W 071°12'0 0.0 210 / 91020.5 10.1-5.7
2019-Apr-17 21:00N 46°48' W 071°12'0 0.0 210 / 121020.3 11.2-6.4
2019-Apr-17 20:00N 46°48' W 071°12'0 0.0 200 / 141020.4 10.6-5.8
2019-Apr-17 19:00N 46°48' W 071°12'0 0.0 200 / 161020.5 9.0-4.0
2019-Apr-17 18:00N 46°48' W 071°12'0 0.0 210 / 151020.7 9.3-4.8
2019-Apr-17 17:00N 46°48' W 071°12'0 0.0 200 / 151020.5 8.3-4.9
2019-Apr-17 16:00N 46°48' W 071°12'0 0.0 200 / 171020.6 6.0-3.5
2019-Apr-17 15:00N 46°48' W 071°12'0 0.0 210 / 111020.7 5.5-5.5
2019-Apr-17 14:00N 46°48' W 071°12'0 0.0 210 / 81020.8 4.5-3.7
2019-Apr-17 13:00N 46°48' W 071°12'0 0.0 200 / 41020.6 4.5-2.2
2019-Apr-17 12:00N 46°48' W 071°12'0 0.0 180 / 11020.0 5.1-3.1
2019-Apr-17 11:00N 46°48' W 071°12'0 0.0 1019.3 4.3-2.7
2019-Apr-17 10:00N 46°48' W 071°12'0 0.0 280 / 11018.1 2.1-3.5
2019-Apr-17 09:00N 46°48' W 071°12'0 0.0 270 / 11017.3 2.2-2.4
2019-Apr-17 08:00N 46°48' W 071°12'0 0.0 1016.8 1.7-2.3
2019-Apr-17 07:00N 46°48' W 071°12'0 0.0 040 / 11016.3 2.5-1.8
2019-Apr-17 06:00N 46°48' W 071°12'0 0.0 240 / 11016.1 2.4-1.5
2019-Apr-17 05:00N 46°48' W 071°12'0 0.0 040 / 21015.7 2.8-1.4
2019-Apr-17 04:00N 46°48' W 071°12'0 0.0 230 / 21015.0 3.9-1.3
2019-Apr-17 03:00N 46°48' W 071°12'0 0.0 210 / 21014.7 4.8-1.5
2019-Apr-17 02:00N 46°48' W 071°12'0 0.0 310 / 11014.2 4.6-1.6
2019-Apr-17 01:00N 46°48' W 071°12'0 0.0 210 / 41013.2 5.3-1.9
2019-Apr-17 00:00N 46°48' W 071°12'0 0.0 030 / 51011.9 6.2-2.6
2019-Apr-16 23:00N 46°48' W 071°12'0 0.0 030 / 81010.6 6.4-3.0
2019-Apr-16 22:00N 46°48' W 071°12'0 0.0 030 / 61009.9 6.6-3.5
2019-Apr-16 21:00N 46°48' W 071°12'0 0.0 020 / 41009.2 5.8-3.4
2019-Apr-16 20:00N 46°48' W 071°12'0 0.0 020 / 61008.7 5.2-3.6
2019-Apr-16 19:00N 46°48' W 071°12'0 0.0 030 / 91008.0 5.0-3.7
2019-Apr-16 18:00N 46°48' W 071°12'0 0.0 030 / 71007.2 5.4-3.3
2019-Apr-16 17:00N 46°48' W 071°12'0 0.0 040 / 91006.4 5.6-3.5
2019-Apr-16 16:00N 46°48' W 071°12'0 0.0 040 / 51005.8 6.3-2.4
2019-Apr-16 15:00N 46°48' W 071°12'4 4.1 030 / 81005.3 5.5-2.5
2019-Apr-16 14:00N 46°48' W 071°06'0 0.0 290 / 211003.8 4.8-2.4 3.7
2019-Apr-16 13:00N 46°48' W 071°06'4 4.1 280 / 181003.4 4.3-1.9 3.8
2019-Apr-16 12:00N 46°48' W 071°12'0 0.0 190 / 71003.0 3.6-0.7
2019-Apr-16 11:00N 46°48' W 071°12'0 0.0 200 / 81001.6 3.3-0.4
2019-Apr-16 10:00N 46°48' W 071°12'0 0.0 200 / 91000.4 3.1-0.0
2019-Apr-16 09:00N 46°48' W 071°12'0 0.0 200 / 8998.9 3.3-0.0
2019-Apr-16 08:00N 46°48' W 071°12'0 0.0 200 / 8998.1 2.8 0.2
2019-Apr-16 07:00N 46°48' W 071°12'0 0.0 200 / 6997.5 2.7 0.4
2019-Apr-16 06:00N 46°48' W 071°12'0 0.0 210 / 5997.5 2.7 0.6
2019-Apr-16 05:00N 46°48' W 071°12'0 0.0 210 / 4996.8 2.2 1.0
2019-Apr-16 04:00N 46°48' W 071°12'0 0.0 200 / 6996.3 1.4 1.1
2019-Apr-16 03:00N 46°48' W 071°12'0 0.0 200 / 3995.8 1.3 1.1
2019-Apr-16 02:00N 46°48' W 071°12'0 0.0 200 / 4994.9 1.4 1.1
2019-Apr-16 01:00N 46°48' W 071°12'0 0.0 220 / 3993.4 0.7 0.6
2019-Apr-16 00:00N 46°48' W 071°12'0 0.0 220 / 2992.7 0.8 0.7
2019-Apr-15 23:00N 46°48' W 071°12'0 0.0 040 / 2992.3 0.9 0.8
2019-Apr-15 22:00N 46°48' W 071°12'0 0.0 040 / 10991.6 0.8 0.6
2019-Apr-15 21:00N 46°48' W 071°12'0 0.0 030 / 10991.3 1.2 0.8
2019-Apr-15 20:00N 46°48' W 071°12'0 0.0 030 / 14990.0 1.6 1.1
2019-Apr-15 19:00N 46°48' W 071°12'0 0.0 050 / 19990.4 1.7 1.0
2019-Apr-15 18:00N 46°48' W 071°12'0 0.0 050 / 21991.1 1.9 1.2
2019-Apr-15 17:00N 46°48' W 071°12'0 0.0 050 / 20991.2 2.3 1.5
2019-Apr-15 16:00N 46°48' W 071°12'0 0.0 050 / 20990.8 2.6 1.7
2019-Apr-15 15:00N 46°48' W 071°12'0 0.0 040 / 19991.9 2.7 1.9
2019-Apr-15 14:00N 46°48' W 071°12'0 0.0 040 / 18993.2 2.9 2.0
2019-Apr-15 13:00N 46°48' W 071°12'0 0.0 040 / 21994.3 2.8 1.9
2019-Apr-15 12:00N 46°48' W 071°12'0 0.0 040 / 23995.4 3.1 1.6
2019-Apr-15 11:00N 46°48' W 071°12'0 0.0 040 / 22995.6 3.1 1.5
2019-Apr-15 10:00N 46°48' W 071°12'0 0.0 040 / 21995.7 3.2 1.2
2019-Apr-15 09:00N 46°48' W 071°12'0 0.0 040 / 22999.3 2.3 0.7
2019-Apr-15 08:00N 46°48' W 071°12'0 0.0 040 / 271000.5 2.0 0.4
2019-Apr-15 07:00N 46°48' W 071°12'0 0.0 040 / 221002.0 2.5 1.0
2019-Apr-15 05:00N 46°48' W 071°12'0 0.0 050 / 121005.8 3.1 1.0
2019-Apr-15 04:00N 46°48' W 071°12'0 0.0 030 / 141007.7 3.1 1.0
2019-Apr-15 03:00N 46°48' W 071°12'0 0.0 020 / 51009.7 3.6 1.3 3.5
2019-Apr-15 02:00N 46°48' W 071°12'0 0.0 160 / 41010.8 3.6 0.9
2019-Apr-15 01:00N 46°48' W 071°12'1413.7 180 / 91012.0 4.3 0.7
2019-Apr-15 00:00N 46°42' W 071°30'1616.5 170 / 131011.5 4.2 0.5 3.8
2019-Apr-14 23:00N 46°42' W 071°54'1717.2 110 / 21011.2 6.1-3.7 4.0
2019-Apr-14 22:00N 46°30' W 072°12'1413.8 210 / 31011.7 6.4-4.8 3.9
2019-Apr-14 21:00N 46°24' W 072°30'1717.3 180 / 31012.4 6.6-5.2 4.0
2019-Apr-14 20:00N 46°12' W 072°48'812.5 140 / 41012.2 6.1-6.0 4.1
2019-Apr-14 19:22N 46°08' W 072°57'2 6.3
2019-Apr-14 19:00N 46°06' W 073°00'348.9 110 / 61013.0 7.1-4.6 4.2
2019-Apr-14 18:55N 46°04' W 073°04'512.3
2019-Apr-14 18:30N 46°01' W 073°10'612.4
2019-Apr-14 18:00N 45°55' W 073°13'2120.5
2019-Apr-14 18:00N 45°54' W 073°12'611.5 200 / 51014.1 6.8-5.2 4.0
2019-Apr-14 17:30N 45°50' W 073°17'612.8
2019-Apr-14 17:01N 45°45' W 073°24'3165.2
2019-Apr-14 17:00N 45°48' W 073°24'918.9 180 / 41014.5 6.8-5.3 4.0
2019-Apr-14 16:30N 45°39' W 073°28'5 9.5
2019-Apr-14 16:00N 45°35' W 073°30'1100.3
2019-Apr-14 16:00N 45°36' W 073°30'610.6 270 / 4 7.1-5.1 4.5
2019-Apr-14 15:27N 45°30' W 073°31'1 1.6
2019-Apr-14 15:01N 45°30' W 073°31'147.8
2019-Apr-14 15:00N 45°30' W 073°30'2 4.7 300 / 3 7.0-4.6 5.2
2019-Apr-14 14:31N 45°28' W 073°30'3 5.7
2019-Apr-14 14:00N 45°25' W 073°31'166.5
2019-Apr-14 14:00N 45°24' W 073°30'3 5.7 270 / 8 6.1-3.5 4.6
2019-Apr-14 13:30N 45°24' W 073°34'1 2.6
2019-Apr-14 13:00N 45°24' W 073°36'030.2
2019-Apr-14 13:00N 45°24' W 073°36'2 4.3 260 / 9 6.1-4.1
2019-Apr-14 12:30N 45°24' W 073°39'3 5.5
2019-Apr-14 12:01N 45°25' W 073°43'148.7
2019-Apr-14 12:00N 45°24' W 073°42'510.5 230 / 8 4.3-2.5 3.8
2019-Apr-14 11:30N 45°23' W 073°49'611.3
2019-Apr-14 11:00N 45°18' W 073°54'21830.4 240 / 8 3.0-3.6 4.2
2019-Apr-14 10:59N 45°20' W 073°53'0 0.0
2019-Apr-14 10:29N 45°20' W 073°53'2 4.1
2019-Apr-14 10:00N 45°18' W 073°54'239.9 240 / 8 2.9-3.8
2019-Apr-14 09:56N 45°20' W 073°53'0 0.0
2019-Apr-14 09:29N 45°20' W 073°53'2 4.1
2019-Apr-14 09:00N 45°18' W 073°54'21475.1 240 / 9 3.6-3.9
2019-Apr-14 08:59N 45°20' W 073°53'0 0.0
2019-Apr-14 08:29N 45°20' W 073°53'2 4.1
2019-Apr-14 08:00N 45°18' W 073°54'2565.9 220 / 12 4.4-4.2
2019-Apr-14 07:59N 45°20' W 073°53'0 0.0
2019-Apr-14 07:29N 45°20' W 073°53'2 4.1
2019-Apr-14 07:00N 45°18' W 073°54'2204.4 220 / 9 4.6-3.5
2019-Apr-14 06:59N 45°20' W 073°53'0 0.0
2019-Apr-14 06:29N 45°20' W 073°53'2 4.2
2019-Apr-14 06:00N 45°18' W 073°54'2159.9 230 / 9 5.0-4.0
2019-Apr-14 05:59N 45°20' W 073°53'0 0.0
2019-Apr-14 05:26N 45°20' W 073°53'2 4.7
2019-Apr-14 05:00N 45°18' W 073°54'2122.9 230 / 10 5.3-3.3
2019-Apr-14 04:59N 45°20' W 073°53'0 0.0
2019-Apr-14 04:28N 45°20' W 073°53'2 4.3
2019-Apr-14 04:00N 45°18' W 073°54'296.3 250 / 9 6.4-2.7
2019-Apr-14 03:58N 45°20' W 073°53'0 0.0
2019-Apr-14 03:25N 45°20' W 073°53'2 4.8
2019-Apr-14 03:00N 45°18' W 073°54'228.3 280 / 9 7.3-3.3 4.0
2019-Apr-14 02:55N 45°20' W 073°53'1 1.2
2019-Apr-14 02:31N 45°20' W 073°54'1 2.5
2019-Apr-14 02:00N 45°19' W 073°55'192.7
2019-Apr-14 02:00N 45°18' W 073°54'1 2.4 270 / 10 8.6-3.1 3.7
2019-Apr-14 01:30N 45°18' W 073°56'0 0.0
2019-Apr-14 01:00N 45°18' W 073°56'173.7
2019-Apr-14 01:00N 45°18' W 073°54'1 2.4 250 / 8 11.0-0.9 3.8
2019-Apr-14 00:30N 45°18' W 073°56'3 5.1
2019-Apr-14 00:00N 45°16' W 073°57'3196.7
2019-Apr-14 00:00N 45°18' W 073°54'1414.0 240 / 19 12.8-2.6 3.7
2019-Apr-13 23:00N 45°12' W 074°12'1010.4 240 / 20 11.4-0.9 3.5
2019-Apr-13 22:00N 45°06' W 074°24'1010.4 230 / 24 14.1-1.5 3.4
2019-Apr-13 21:00N 45°00' W 074°36'1010.4 230 / 30 16.2-2.9 3.2
2019-Apr-13 20:00N 44°54' W 074°48'4 4.3 230 / 21 16.8-3.1 3.4
2019-Apr-13 19:00N 44°54' W 074°54'0 0.0 230 / 19 16.7-3.3 3.4
2019-Apr-13 18:00N 44°54' W 074°54'1312.8 230 / 27 14.5-3.3 3.0
2019-Apr-13 17:00N 44°54' W 075°12'7 7.4 230 / 25 13.9 0.3 2.9
2019-Apr-13 16:00N 44°48' W 075°18'1414.1 220 / 25 13.4 1.9 2.6
2019-Apr-13 15:00N 44°42' W 075°36'813.0 220 / 20 10.7 2.1 2.6
2019-Apr-13 14:24N 44°35' W 075°41'4 9.1
2019-Apr-13 14:00N 44°33' W 075°44'3211.0
2019-Apr-13 14:00N 44°30' W 075°42'4 9.1 210 / 12 9.6 3.4 2.3
2019-Apr-13 13:30N 44°28' W 075°48'5 9.5
2019-Apr-13 13:01N 44°24' W 075°51'2122.7
2019-Apr-13 13:00N 44°24' W 075°54'7 7.4 190 / 7 9.1 4.3 2.1
2019-Apr-13 12:00N 44°18' W 076°00'6 8.8 190 / 51016.9 7.3 4.1 2.0
2019-Apr-13 11:19N 44°14' W 076°07'514.2
2019-Apr-13 11:00N 44°12' W 076°12'111.4 230 / 71016.4 5.2 3.2 2.1
2019-Apr-13 10:56N 44°12' W 076°13'1011.1
2019-Apr-13 10:00N 44°06' W 076°24'1514.8 250 / 171015.3 7.1 3.4 2.2
2019-Apr-13 09:00N 43°54' W 076°36'1414.3 250 / 171014.5 6.0 2.4 2.6
2019-Apr-13 08:00N 43°48' W 076°54'1414.3 250 / 211013.6 9.7 4.0 2.4
2019-Apr-13 07:00N 43°42' W 077°12'1717.4 240 / 151013.1 8.0 4.7 2.5
2019-Apr-13 06:00N 43°42' W 077°36'1414.3 220 / 141012.9 7.8 5.2 2.5
2019-Apr-13 05:00N 43°36' W 077°54'1414.4 230 / 121012.6 9.1 5.5 2.7
2019-Apr-13 04:00N 43°30' W 078°12'1818.4 210 / 131011.9 10.7 6.1 3.2
2019-Apr-13 03:00N 43°24' W 078°36'1313.1 230 / 101011.6 9.8 6.0 3.5
2019-Apr-13 02:00N 43°24' W 078°54'1414.4 230 / 111011.3 10.2 7.2 3.2
2019-Apr-13 01:00N 43°18' W 079°12'6 6.0 220 / 161010.7 14.010.0 4.2
2019-Apr-13 00:00N 43°12' W 079°12'0 0.0 210 / 91008.6 16.912.7 5.1
2019-Apr-12 23:00N 43°12' W 079°12'6 6.0 190 / 61006.4 15.913.8 4.2
2019-Apr-12 22:00N 43°06' W 079°12'0 0.0 170 / 5 14.613.2 4.1
2019-Apr-12 21:00N 43°06' W 079°12'0 0.0 180 / 6 13.311.7
2019-Apr-12 20:00N 43°06' W 079°12'0 0.0 180 / 12 14.412.0
2019-Apr-12 19:00N 43°06' W 079°12'6 6.0 170 / 6 14.212.6 1.6
2019-Apr-12 18:00N 43°00' W 079°12'6 6.0 220 / 11 14.011.0 1.5
2019-Apr-12 17:00N 42°54' W 079°12'7 7.4 190 / 141009.9 15.2 7.2 0.9
2019-Apr-12 16:00N 42°48' W 079°18'0 0.0 170 / 141009.3 8.1 4.2 0.6
2019-Apr-12 15:00N 42°48' W 079°18'0 0.0 180 / 221009.8 8.8 4.6 0.6
2019-Apr-12 14:00N 42°48' W 079°18'0 0.0 180 / 171010.3 8.7 4.4 0.7
2019-Apr-12 13:00N 42°48' W 079°18'0 0.0 170 / 131011.1 8.7 4.4 0.7
2019-Apr-12 11:00N 42°48' W 079°18'0 0.0 130 / 61011.5 6.7 3.4 0.8
2019-Apr-12 10:00N 42°48' W 079°18'0 0.0 110 / 51011.7 6.6 3.0
2019-Apr-12 09:00N 42°48' W 079°18'0 0.0 070 / 71012.1 5.7 1.8
2019-Apr-12 08:00N 42°48' W 079°18'0 0.0 070 / 91012.4 4.5 0.7
2019-Apr-12 07:00N 42°48' W 079°18'0 0.0 060 / 91013.3 3.5-0.2
2019-Apr-12 06:00N 42°48' W 079°18'0 0.0 050 / 121013.8 3.3-0.5
2019-Apr-12 05:00N 42°48' W 079°18'0 0.0 040 / 141014.4 2.9-0.8
2019-Apr-12 04:00N 42°48' W 079°18'0 0.0 040 / 141015.4 3.3-0.9
2019-Apr-12 03:00N 42°48' W 079°18'0 0.0 050 / 141016.5 3.2-0.9 0.7
2019-Apr-12 02:00N 42°48' W 079°18'0 0.0 050 / 151017.4 3.1-0.9 0.8
2019-Apr-12 01:00N 42°48' W 079°18'0 0.0 050 / 161017.7 3.2-0.9
2019-Apr-12 00:00N 42°48' W 079°18'0 0.0 060 / 201017.4 3.4-0.6 0.7
2019-Apr-11 23:00N 42°48' W 079°18'0 0.0 050 / 201017.9 3.2-0.5 0.7
2019-Apr-11 22:00N 42°48' W 079°18'7 7.4 060 / 201018.8 4.0-0.6 0.8
2019-Apr-11 21:00N 42°54' W 079°12'7 7.4 070 / 161019.6 5.2-0.5 0.9
2019-Apr-11 20:00N 42°48' W 079°18'0 0.0 050 / 181019.5 2.4-1.2 0.8
2019-Apr-11 19:00N 42°48' W 079°18'4 4.4 050 / 181019.9 1.6-1.5 0.8
2019-Apr-11 18:00N 42°48' W 079°12'4 4.4 050 / 161021.6 1.5-1.7
2019-Apr-11 17:00N 42°48' W 079°18'0 0.0 060 / 161022.2 1.0-1.9 0.7
2019-Apr-11 16:00N 42°48' W 079°18'4 4.4 060 / 161022.5 0.5-2.0 0.7
2019-Apr-11 15:00N 42°48' W 079°24'4 4.4 060 / 111023.7 0.4-2.2 0.7
2019-Apr-11 14:00N 42°48' W 079°18'0 0.0 060 / 141023.7 0.3-2.6 0.7
2019-Apr-11 13:00N 42°48' W 079°18'0 0.0 060 / 131024.4 0.4-3.1 0.8
2019-Apr-11 12:00N 42°48' W 079°18'0 0.0 050 / 131023.2 0.2-3.6
2019-Apr-11 11:00N 42°48' W 079°18'0 0.0 050 / 131022.3 0.2-3.2 0.8
2019-Apr-11 10:00N 42°48' W 079°18'4 4.4 040 / 91022.5 0.1-2.3
2019-Apr-11 09:00N 42°48' W 079°12'0 0.0 040 / 81022.7 0.3-2.5
2019-Apr-11 08:00N 42°48' W 079°12'0 0.0 030 / 81022.6 0.6-2.8
2019-Apr-11 07:00N 42°48' W 079°12'0 0.0 020 / 91021.8 0.9-2.9
2019-Apr-11 06:00N 42°48' W 079°12'0 0.0 010 / 81021.0 0.8-2.8
2019-Apr-11 05:00N 42°48' W 079°12'0 0.0 010 / 81020.9 1.3-2.6
2019-Apr-11 04:00N 42°48' W 079°12'0 0.0 350 / 51021.1 2.1-0.8
2019-Apr-11 03:00N 42°48' W 079°12'0 0.0 330 / 51021.1 1.0-0.7
2019-Apr-11 02:00N 42°48' W 079°12'0 0.0 280 / 41021.0 -0.0-0.7
2019-Apr-11 01:00N 42°48' W 079°12'0 0.0 270 / 51019.6 -0.1-1.1
2019-Apr-11 00:00N 42°48' W 079°12'0 0.0 180 / 51018.8 1.8-2.4
2019-Apr-10 23:00N 42°48' W 079°12'0 0.0 200 / 71018.7 2.1-2.2
2019-Apr-10 22:00N 42°48' W 079°12'0 0.0 220 / 71018.8 1.4-1.0
2019-Apr-10 21:00N 42°48' W 079°12'0 0.0 260 / 41018.6 1.7-1.5
2019-Apr-10 20:00N 42°48' W 079°12'0 0.0 340 / 41018.2 2.3-1.8
2019-Apr-10 19:00N 42°48' W 079°12'9 8.8 030 / 101018.1 1.0-0.6 0.7
2019-Apr-10 18:00N 42°48' W 079°00'7 7.4 290 / 111017.5 1.5-1.2 0.7
2019-Apr-10 17:00N 42°54' W 078°54'7 7.4 270 / 51017.4 1.5-1.3 0.7
2019-Apr-10 16:00N 42°48' W 079°00'1414.5 290 / 51017.5 1.2-1.5 0.7
2019-Apr-10 15:00N 42°54' W 079°18'1514.9 340 / 81016.6 1.0-2.3 0.7
2019-Apr-10 14:00N 42°42' W 079°30'1110.7 020 / 91016.1 1.0-1.2 0.7
2019-Apr-10 13:00N 42°48' W 079°18'0 0.0 020 / 61015.2 1.4-1.0 0.7
2019-Apr-10 12:00N 42°48' W 079°18'0 0.0 350 / 91014.3 1.5-0.6 0.7
2019-Apr-10 11:00N 42°48' W 079°18'4 4.4 360 / 71013.3 1.8 0.1 0.7
2019-Apr-10 10:00N 42°48' W 079°12'0 0.0 360 / 71012.6 2.1 0.9
2019-Apr-10 09:00N 42°48' W 079°12'0 0.0 330 / 61011.9 3.3 0.7
2019-Apr-10 08:00N 42°48' W 079°12'0 0.0 330 / 81011.1 3.4 0.8
2019-Apr-10 07:00N 42°48' W 079°12'0 0.0 340 / 131010.4 3.8 1.0
2019-Apr-10 06:00N 42°48' W 079°12'0 0.0 330 / 111010.1 3.7 1.5
2019-Apr-10 05:00N 42°48' W 079°12'0 0.0 250 / 61010.0 1.7 1.3
2019-Apr-10 04:00N 42°48' W 079°12'0 0.0 250 / 81010.0 1.8 1.3
2019-Apr-10 03:00N 42°48' W 079°12'0 0.0 230 / 61009.8 1.1 1.0 0.9
2019-Apr-10 02:00N 42°48' W 079°12'0 0.0 240 / 71009.9 1.3 1.1
2019-Apr-10 01:00N 42°48' W 079°12'4 4.4 220 / 71009.1 1.5 1.1
2019-Apr-10 00:00N 42°48' W 079°18'0 0.0 250 / 101008.9 1.8 1.3 1.0
2019-Apr-09 23:00N 42°48' W 079°18'0 0.0 240 / 131008.3 1.8 1.1 0.8
2019-Apr-09 22:00N 42°48' W 079°18'0 0.0 250 / 111007.7 3.9 1.1 0.8
2019-Apr-09 21:00N 42°48' W 079°18'4 4.4 230 / 151007.6 2.7 1.3 0.7
2019-Apr-09 20:00N 42°48' W 079°24'0 0.0 230 / 181007.4 3.8 2.4 0.9
2019-Apr-09 19:00N 42°48' W 079°24'4 4.4 250 / 181006.4 3.3 1.8 0.7
2019-Apr-09 18:00N 42°48' W 079°18'0 0.0 240 / 211005.4 2.6 1.7 0.7
2019-Apr-09 17:00N 42°48' W 079°18'0 0.0 240 / 181004.6 3.1 1.8 0.7
2019-Apr-09 16:00N 42°48' W 079°18'6 6.0 240 / 191003.9 3.7 2.3 0.8
2019-Apr-09 15:00N 42°54' W 079°18'6 6.0 250 / 201002.3 6.0 4.1 0.8
2019-Apr-09 14:00N 42°48' W 079°18'4 4.4 250 / 181003.3 4.3 4.4 0.9
2019-Apr-09 13:00N 42°48' W 079°12'0 0.0 250 / 161002.8 3.3 3.5
2019-Apr-09 12:00N 42°48' W 079°12'0 0.0 220 / 151002.2 4.2 4.4
2019-Apr-09 11:00N 42°48' W 079°12'0 0.0 230 / 91002.4 6.1 6.4
2019-Apr-09 10:00N 42°48' W 079°12'   120 / 81004.4 5.4 5.6

Dump ship's entire track history